createdAt,value
2018-04-30T00:00:27.970Z,27.11
2018-04-30T00:01:27.999Z,27.39
2018-04-30T00:02:27.764Z,27.2
2018-04-30T00:03:28.044Z,27.29
2018-04-30T00:04:28.068Z,27.4
2018-04-30T00:05:28.098Z,27.2
2018-04-30T00:06:28.120Z,27.2
2018-04-30T00:07:28.158Z,27.68
2018-04-30T00:08:28.218Z,27.68
2018-04-30T00:09:28.198Z,27.49
2018-04-30T00:10:28.217Z,27.78
2018-04-30T00:11:27.994Z,27.78
2018-04-30T00:12:28.022Z,27.68
2018-04-30T00:13:28.302Z,27.68
2018-04-30T00:14:28.069Z,27.59
2018-04-30T00:15:28.379Z,27.78
2018-04-30T00:16:28.381Z,27.97
2018-04-30T00:17:28.147Z,27.97
2018-04-30T00:18:28.424Z,27.96
2018-04-30T00:19:28.199Z,27.86
2018-04-30T00:20:28.475Z,27.97
2018-04-30T00:21:28.503Z,28.05
2018-04-30T00:22:28.274Z,28.15
2018-04-30T00:23:28.604Z,27.96
2018-04-30T00:24:28.580Z,27.96
2018-04-30T00:25:28.606Z,28.07
2018-04-30T00:26:28.376Z,28.25
2018-04-30T00:27:28.404Z,27.97
2018-04-30T00:28:28.676Z,27.97
2018-04-30T00:29:28.456Z,27.97
2018-04-30T00:30:28.736Z,27.87
2018-04-30T00:31:28.763Z,27.87
2018-04-30T00:32:28.787Z,27.97
2018-04-30T00:33:28.559Z,27.97
2018-04-30T00:34:28.588Z,27.87
2018-04-30T00:35:28.867Z,27.97
2018-04-30T00:36:28.890Z,27.68
2018-04-30T00:37:28.918Z,27.78
2018-04-30T00:38:28.993Z,27.78
2018-04-30T00:39:29.012Z,27.68
2018-04-30T00:40:29.002Z,27.78
2018-04-30T00:41:29.021Z,27.78
2018-04-30T00:42:29.047Z,27.68
2018-04-30T00:43:29.077Z,27.68
2018-04-30T00:44:29.100Z,27.87
2018-04-30T00:45:29.121Z,28.07
2018-04-30T00:46:29.155Z,27.78
2018-04-30T00:47:29.177Z,27.78
2018-04-30T00:48:28.946Z,27.78
2018-04-30T00:49:29.231Z,27.78
2018-04-30T00:50:29.252Z,27.78
2018-04-30T00:51:29.274Z,27.8
2018-04-30T00:52:29.050Z,27.97
2018-04-30T00:53:29.126Z,27.97
2018-04-30T00:54:29.356Z,28.16
2018-04-30T00:55:29.384Z,27.89
2018-04-30T00:56:29.412Z,28.16
2018-04-30T00:57:29.179Z,28.07
2018-04-30T00:58:29.204Z,28.07
2018-04-30T00:59:29.227Z,28.26
2018-04-30T01:00:29.508Z,28.26
2018-04-30T01:01:29.532Z,28.26
2018-04-30T01:02:29.558Z,28.26
2018-04-30T01:03:29.717Z,28.26
2018-04-30T01:04:29.356Z,28.26
2018-04-30T01:05:29.637Z,28.45
2018-04-30T01:06:29.662Z,28.45
2018-04-30T01:07:29.686Z,28.74
2018-04-30T01:08:29.509Z,29.13
2018-04-30T01:09:29.741Z,29.21
2018-04-30T01:10:29.767Z,29.11
2018-04-30T01:11:29.790Z,29.21
2018-04-30T01:12:29.806Z,29.03
2018-04-30T01:13:29.840Z,29.22
2018-04-30T01:14:29.858Z,28.92
2018-04-30T01:15:29.882Z,29.02
2018-04-30T01:16:29.911Z,29.21
2018-04-30T01:17:29.939Z,29.21
2018-04-30T01:18:29.714Z,29.11
2018-04-30T01:19:29.988Z,29.02
2018-04-30T01:20:30.015Z,29.02
2018-04-30T01:21:30.060Z,28.92
2018-04-30T01:22:30.076Z,29.02
2018-04-30T01:23:30.151Z,28.83
2018-04-30T01:24:30.126Z,29.11
2018-04-30T01:25:30.153Z,29.2
2018-04-30T01:26:30.180Z,29.02
2018-04-30T01:27:29.976Z,29.11
2018-04-30T01:28:30.225Z,28.83
2018-04-30T01:29:29.998Z,29.21
2018-04-30T01:30:30.267Z,29.2
2018-04-30T01:31:30.295Z,29.2
2018-04-30T01:32:30.320Z,29.11
2018-04-30T01:33:30.094Z,29.11
2018-04-30T01:34:30.387Z,29.21
2018-04-30T01:35:30.399Z,29.31
2018-04-30T01:36:30.423Z,28.91
2018-04-30T01:37:30.448Z,29.31
2018-04-30T01:38:30.479Z,29.02
2018-04-30T01:39:30.553Z,28.92
2018-04-30T01:40:30.527Z,28.92
2018-04-30T01:41:30.549Z,29.11
2018-04-30T01:42:30.579Z,29.29
2018-04-30T01:43:30.605Z,29.2
2018-04-30T01:44:30.627Z,29.39
2018-04-30T01:45:30.654Z,29.29
2018-04-30T01:46:30.680Z,29.68
2018-04-30T01:47:30.708Z,29.69
2018-04-30T01:48:30.743Z,29.58
2018-04-30T01:49:30.764Z,29.58
2018-04-30T01:50:30.793Z,29.49
2018-04-30T01:51:30.814Z,29.97
2018-04-30T01:52:30.836Z,29.97
2018-04-30T01:53:30.868Z,30.07
2018-04-30T01:54:30.939Z,29.77
2018-04-30T01:55:30.919Z,29.97
2018-04-30T01:56:30.939Z,29.87
2018-04-30T01:57:30.966Z,29.97
2018-04-30T01:58:30.737Z,29.68
2018-04-30T01:59:30.761Z,29.87
2018-04-30T02:00:31.049Z,30.07
2018-04-30T02:01:30.811Z,30.07
2018-04-30T02:02:31.092Z,30.07
2018-04-30T02:03:31.117Z,30.05
2018-04-30T02:04:31.192Z,29.97
2018-04-30T02:05:30.912Z,30.15
2018-04-30T02:06:31.191Z,30.15
2018-04-30T02:07:30.964Z,30.24
2018-04-30T02:08:31.249Z,30.07
2018-04-30T02:09:31.269Z,30.24
2018-04-30T02:10:31.297Z,30.15
2018-04-30T02:11:31.317Z,30.15
2018-04-30T02:12:31.444Z,30.26
2018-04-30T02:13:31.371Z,30.05
2018-04-30T02:14:31.141Z,29.97
2018-04-30T02:15:31.164Z,29.87
2018-04-30T02:16:31.441Z,30.07
2018-04-30T02:17:31.474Z,30.24
2018-04-30T02:18:31.491Z,30.24
2018-04-30T02:19:31.265Z,30.35
2018-04-30T02:20:31.593Z,29.95
2018-04-30T02:21:31.314Z,29.95
2018-04-30T02:22:31.342Z,30.07
2018-04-30T02:23:31.617Z,29.86
2018-04-30T02:24:31.649Z,29.95
2018-04-30T02:25:31.676Z,30.05
2018-04-30T02:26:31.693Z,30.35
2018-04-30T02:27:31.721Z,30.15
2018-04-30T02:28:31.751Z,29.95
2018-04-30T02:29:31.768Z,29.95
2018-04-30T02:30:31.793Z,29.87
2018-04-30T02:31:31.825Z,30.07
2018-04-30T02:32:31.865Z,30.15
2018-04-30T02:33:31.970Z,29.95
2018-04-30T02:34:31.899Z,29.95
2018-04-30T02:35:31.983Z,29.87
2018-04-30T02:36:31.691Z,29.87
2018-04-30T02:37:31.994Z,30.07
2018-04-30T02:38:31.999Z,29.77
2018-04-30T02:39:32.019Z,29.66
2018-04-30T02:40:32.048Z,29.95
2018-04-30T02:41:32.074Z,29.95
2018-04-30T02:42:32.101Z,30.15
2018-04-30T02:43:32.124Z,30.24
2018-04-30T02:44:32.149Z,30.24
2018-04-30T02:45:31.917Z,30.24
2018-04-30T02:46:32.203Z,30.15
2018-04-30T02:47:32.221Z,30.15
2018-04-30T02:48:31.997Z,30.05
2018-04-30T02:49:32.277Z,30.05
2018-04-30T02:50:32.346Z,30.05
2018-04-30T02:51:32.321Z,30.05
2018-04-30T02:52:32.345Z,30.15
2018-04-30T02:53:32.378Z,30.24
2018-04-30T02:54:32.144Z,30.15
2018-04-30T02:55:32.421Z,30.15
2018-04-30T02:56:32.455Z,30.82
2018-04-30T02:57:32.475Z,30.73
2018-04-30T02:58:32.547Z,30.43
2018-04-30T02:59:32.522Z,30.53
2018-04-30T03:00:32.645Z,30.63
2018-04-30T03:01:32.571Z,30.24
2018-04-30T03:02:32.595Z,30.91
2018-04-30T03:03:32.625Z,31.11
2018-04-30T03:04:32.644Z,30.91
2018-04-30T03:05:32.732Z,31.19
2018-04-30T03:06:32.700Z,31
2018-04-30T03:07:32.729Z,31.67
2018-04-30T03:08:32.493Z,32.71
2018-04-30T03:09:32.517Z,33.1
2018-04-30T03:10:32.542Z,33.87
2018-04-30T03:11:32.829Z,33.95
2018-04-30T03:12:32.852Z,34.05
2018-04-30T03:13:32.870Z,34.33
2018-04-30T03:14:32.906Z,34.33
2018-04-30T03:15:32.665Z,34.72
2018-04-30T03:16:32.955Z,34.81
2018-04-30T03:17:32.962Z,35.2
2018-04-30T03:18:32.733Z,35.2
2018-04-30T03:19:33.015Z,35.2
2018-04-30T03:20:33.091Z,35.47
2018-04-30T03:21:33.058Z,35.95
2018-04-30T03:22:33.085Z,35.47
2018-04-30T03:23:33.115Z,35.85
2018-04-30T03:24:33.137Z,35.85
2018-04-30T03:25:33.164Z,35.95
2018-04-30T03:26:33.187Z,36.53
2018-04-30T03:27:33.210Z,36.6
2018-04-30T03:28:32.982Z,36.99
2018-04-30T03:29:33.273Z,37.37
2018-04-30T03:30:33.284Z,37.37
2018-04-30T03:31:33.308Z,37.95
2018-04-30T03:32:33.407Z,38.91
2018-04-30T03:33:33.353Z,39.56
2018-04-30T03:34:33.381Z,40.55
2018-04-30T03:35:33.455Z,41.6
2018-04-30T03:36:33.429Z,42.54
2018-04-30T03:37:33.199Z,43.5
2018-04-30T03:38:33.479Z,44.56
2018-04-30T03:39:33.495Z,45.61
2018-04-30T03:40:33.523Z,46.28
2018-04-30T03:41:33.545Z,47.34
2018-04-30T03:42:33.571Z,47.61
2018-04-30T03:43:33.594Z,48.28
2018-04-30T03:44:33.618Z,48.28
2018-04-30T03:45:33.639Z,48.09
2018-04-30T03:46:33.667Z,47.99
2018-04-30T03:47:33.687Z,48.18
2018-04-30T03:48:33.710Z,48.38
2018-04-30T03:49:33.733Z,49.82
2018-04-30T03:50:33.809Z,50.37
2018-04-30T03:51:33.530Z,51.04
2018-04-30T03:52:33.803Z,52.48
2018-04-30T03:53:33.838Z,54.01
2018-04-30T03:54:33.858Z,55.55
2018-04-30T03:55:33.871Z,55.74
2018-04-30T03:56:33.898Z,57.28
2018-04-30T03:57:33.665Z,58.04
2018-04-30T03:58:33.953Z,58.59
2018-04-30T03:59:33.972Z,59.16
2018-04-30T04:00:33.735Z,60.03
2018-04-30T04:01:34.012Z,60.12
2018-04-30T04:02:34.038Z,59.74
2018-04-30T04:03:34.072Z,58.71
2018-04-30T04:04:33.830Z,58.42
2018-04-30T04:05:34.105Z,59.09
2018-04-30T04:06:33.924Z,59.19
2018-04-30T04:07:34.149Z,58.91
2018-04-30T04:08:34.177Z,58.52
2018-04-30T04:09:34.199Z,58.81
2018-04-30T04:10:34.219Z,58.91
2018-04-30T04:11:34.242Z,58.81
2018-04-30T04:12:34.013Z,59.19
2018-04-30T04:13:34.290Z,59.19
2018-04-30T04:14:34.317Z,59.58
2018-04-30T04:15:34.340Z,60.35
2018-04-30T04:16:34.362Z,61.4
2018-04-30T04:17:34.126Z,62.13
2018-04-30T04:18:34.400Z,63.48
2018-04-30T04:19:34.169Z,63.67
2018-04-30T04:20:34.443Z,62.23
2018-04-30T04:21:34.515Z,58.78
2018-04-30T04:22:34.484Z,57.6
2018-04-30T04:23:34.512Z,56.93
2018-04-30T04:24:34.533Z,56.93
2018-04-30T04:25:34.559Z,56.04
2018-04-30T04:26:34.600Z,55.75
2018-04-30T04:27:34.616Z,55.18
2018-04-30T04:28:34.626Z,55.27
2018-04-30T04:29:34.672Z,54.6
2018-04-30T04:30:34.671Z,54.77
2018-04-30T04:31:34.695Z,54.86
2018-04-30T04:32:34.469Z,54.67
2018-04-30T04:33:34.487Z,54.28
2018-04-30T04:34:34.768Z,54.1
2018-04-30T04:35:34.786Z,54.36
2018-04-30T04:36:34.857Z,53.52
2018-04-30T04:37:34.827Z,53.69
2018-04-30T04:38:34.850Z,54.16
2018-04-30T04:39:34.872Z,53.4
2018-04-30T04:40:34.894Z,52.15
2018-04-30T04:41:34.919Z,52.73
2018-04-30T04:42:34.947Z,52.13
2018-04-30T04:43:34.960Z,51.75
2018-04-30T04:44:34.728Z,51.36
2018-04-30T04:45:35.006Z,51.65
2018-04-30T04:46:35.030Z,51.36
2018-04-30T04:47:35.002Z,50.5
2018-04-30T04:48:35.076Z,49.93
2018-04-30T04:49:35.092Z,48.97
2018-04-30T04:50:35.114Z,49.43
2018-04-30T04:51:35.182Z,49.52
2018-04-30T04:52:35.171Z,49.62
2018-04-30T04:53:35.168Z,48.75
2018-04-30T04:54:35.188Z,49.14
2018-04-30T04:55:34.958Z,48.85
2018-04-30T04:56:35.233Z,48.95
2018-04-30T04:57:35.251Z,49.04
2018-04-30T04:58:35.275Z,48.75
2018-04-30T04:59:35.298Z,48.85
2018-04-30T05:00:35.062Z,48.66
2018-04-30T05:01:35.085Z,48.57
2018-04-30T05:02:35.370Z,49.49
2018-04-30T05:03:35.384Z,49.49
2018-04-30T05:04:35.408Z,49.49
2018-04-30T05:05:35.427Z,49.11
2018-04-30T05:06:35.497Z,49.23
2018-04-30T05:07:35.468Z,48.85
2018-04-30T05:08:35.488Z,48.75
2018-04-30T05:09:35.511Z,48.66
2018-04-30T05:10:35.533Z,49.3
2018-04-30T05:11:35.556Z,49.49
2018-04-30T05:12:35.605Z,49.4
2018-04-30T05:13:35.340Z,49.49
2018-04-30T05:14:35.613Z,49.49
2018-04-30T05:15:35.635Z,49.98
2018-04-30T05:16:35.664Z,49.88
2018-04-30T05:17:35.430Z,49.78
2018-04-30T05:18:35.703Z,49.59
2018-04-30T05:19:35.718Z,49.49
2018-04-30T05:20:35.739Z,49.88
2018-04-30T05:21:35.813Z,49.78
2018-04-30T05:22:35.780Z,50.07
2018-04-30T05:23:35.798Z,50.26
2018-04-30T05:24:35.819Z,49.88
2018-04-30T05:25:35.845Z,50.71
2018-04-30T05:26:35.610Z,50.74
2018-04-30T05:27:35.630Z,50.84
2018-04-30T05:28:35.899Z,51
2018-04-30T05:29:35.930Z,51.12
2018-04-30T05:30:35.684Z,51.95
2018-04-30T05:31:35.963Z,51.29
2018-04-30T05:32:35.729Z,51.67
2018-04-30T05:33:35.999Z,51.86
2018-04-30T05:34:36.018Z,51
2018-04-30T05:35:36.036Z,51.09
2018-04-30T05:36:36.115Z,51.76
2018-04-30T05:37:35.828Z,51.67
2018-04-30T05:38:36.116Z,51.67
2018-04-30T05:39:36.125Z,51.95
2018-04-30T05:40:36.145Z,51.95
2018-04-30T05:41:35.916Z,51.86
2018-04-30T05:42:36.192Z,52.15
2018-04-30T05:43:36.206Z,52.43
2018-04-30T05:44:35.974Z,52.62
2018-04-30T05:45:36.252Z,52.15
2018-04-30T05:46:36.269Z,52.91
2018-04-30T05:47:36.287Z,52.79
2018-04-30T05:48:36.310Z,52.88
2018-04-30T05:49:36.334Z,52.88
2018-04-30T05:50:36.357Z,53.45
2018-04-30T05:51:36.470Z,53.93
2018-04-30T05:52:36.400Z,53.84
2018-04-30T05:53:36.418Z,54.6
2018-04-30T05:54:36.182Z,54.99
2018-04-30T05:55:36.207Z,54.67
2018-04-30T05:56:36.478Z,54.32
2018-04-30T05:57:36.494Z,54.6
2018-04-30T05:58:36.515Z,54.32
2018-04-30T05:59:36.532Z,54.22
2018-04-30T06:00:36.646Z,53.93
2018-04-30T06:01:36.576Z,54.79
2018-04-30T06:02:36.592Z,54.32
2018-04-30T06:03:36.613Z,54.03
2018-04-30T06:04:36.379Z,54.03
2018-04-30T06:05:36.659Z,53.45
2018-04-30T06:06:36.725Z,53.49
2018-04-30T06:07:36.696Z,53.58
2018-04-30T06:08:36.714Z,53.58
2018-04-30T06:09:36.732Z,53.77
2018-04-30T06:10:36.758Z,54.91
2018-04-30T06:11:36.777Z,54.79
2018-04-30T06:12:36.790Z,54.53
2018-04-30T06:13:36.817Z,53.96
2018-04-30T06:14:36.835Z,54.44
2018-04-30T06:15:36.851Z,55.36
2018-04-30T06:16:36.872Z,56.8
2018-04-30T06:17:36.978Z,56.99
2018-04-30T06:18:36.656Z,57.28
2018-04-30T06:19:36.928Z,57.82
2018-04-30T06:20:36.948Z,58.77
2018-04-30T06:21:36.767Z,59.63
2018-04-30T06:22:36.735Z,60.78
2018-04-30T06:23:37.021Z,62.11
2018-04-30T06:24:36.779Z,64.12
2018-04-30T06:25:37.055Z,66.02
2018-04-30T06:26:36.895Z,66.98
2018-04-30T06:27:36.843Z,67.07
2018-04-30T06:28:37.112Z,67.9
2018-04-30T06:29:37.135Z,67.74
2018-04-30T06:30:36.898Z,68.6
2018-04-30T06:31:37.175Z,68.03
2018-04-30T06:32:37.193Z,67.83
2018-04-30T06:33:37.215Z,67.83
2018-04-30T06:34:37.233Z,69.52
2018-04-30T06:35:37.257Z,68.66
2018-04-30T06:36:37.069Z,68.85
2018-04-30T06:37:37.286Z,70
2018-04-30T06:38:37.307Z,69.62
2018-04-30T06:39:37.336Z,69.65
2018-04-30T06:40:37.350Z,70.61
2018-04-30T06:41:37.421Z,72.42
2018-04-30T06:42:37.391Z,71.91
2018-04-30T06:43:37.436Z,73.14
2018-04-30T06:44:37.426Z,73.14
2018-04-30T06:45:37.450Z,72.76
2018-04-30T06:46:37.467Z,71.81
2018-04-30T06:47:37.647Z,71.72
2018-04-30T06:48:37.508Z,71.81
2018-04-30T06:49:37.531Z,72.86
2018-04-30T06:50:37.544Z,72.96
2018-04-30T06:51:37.364Z,73.43
2018-04-30T06:52:37.582Z,73.14
2018-04-30T06:53:37.738Z,73.33
2018-04-30T06:54:37.369Z,73.62
2018-04-30T06:55:37.646Z,72.28
2018-04-30T06:56:37.662Z,72.38
2018-04-30T06:57:37.680Z,72.96
2018-04-30T06:58:37.717Z,71.91
2018-04-30T06:59:37.719Z,72.28
2018-04-30T07:00:37.737Z,72.09
2018-04-30T07:01:37.755Z,71.72
2018-04-30T07:02:37.773Z,72
2018-04-30T07:03:37.796Z,72.67
2018-04-30T07:04:37.816Z,73.24
2018-04-30T07:05:37.582Z,73.05
2018-04-30T07:06:37.933Z,72.86
2018-04-30T07:07:37.881Z,72.51
2018-04-30T07:08:37.637Z,72.71
2018-04-30T07:09:38.379Z,72.13
2018-04-30T07:10:37.933Z,71.66
2018-04-30T07:11:37.952Z,71.94
2018-04-30T07:12:37.739Z,71.02
2018-04-30T07:13:37.994Z,70.83
2018-04-30T07:14:37.758Z,70.83
2018-04-30T07:15:37.777Z,70.16
2018-04-30T07:16:38.051Z,70.83
2018-04-30T07:17:38.071Z,70.36
2018-04-30T07:18:38.088Z,70.58
2018-04-30T07:19:38.109Z,70.29
2018-04-30T07:20:38.130Z,69.05
2018-04-30T07:21:37.953Z,68.57
2018-04-30T07:22:38.172Z,68.86
2018-04-30T07:23:38.194Z,68
2018-04-30T07:24:37.959Z,68.76
2018-04-30T07:25:38.234Z,69.62
2018-04-30T07:26:37.999Z,68.48
2018-04-30T07:27:38.148Z,68.1
2018-04-30T07:28:38.294Z,67.81
2018-04-30T07:29:38.314Z,68.1
2018-04-30T07:30:38.088Z,66.6
2018-04-30T07:31:38.375Z,66.41
2018-04-30T07:32:38.376Z,66.66
2018-04-30T07:33:38.140Z,67.05
2018-04-30T07:34:38.416Z,66.66
2018-04-30T07:35:38.506Z,66.47
2018-04-30T07:36:38.509Z,66.85
2018-04-30T07:37:38.224Z,66.09
2018-04-30T07:38:38.498Z,65.64
2018-04-30T07:39:38.520Z,65.45
2018-04-30T07:40:38.549Z,66
2018-04-30T07:41:38.564Z,65.8
2018-04-30T07:42:38.578Z,64.59
2018-04-30T07:43:38.609Z,63.83
2018-04-30T07:44:38.622Z,63.64
2018-04-30T07:45:38.642Z,62.81
2018-04-30T07:46:38.416Z,63.1
2018-04-30T07:47:38.690Z,63
2018-04-30T07:48:38.707Z,62.24
2018-04-30T07:49:38.478Z,61.95
2018-04-30T07:50:38.492Z,61.85
2018-04-30T07:51:38.816Z,62.33
2018-04-30T07:52:38.786Z,61.85
2018-04-30T07:53:38.818Z,60.8
2018-04-30T07:54:38.997Z,59.78
2018-04-30T07:55:38.857Z,58.92
2018-04-30T07:56:38.674Z,58.28
2018-04-30T07:57:38.900Z,57.32
2018-04-30T07:58:38.921Z,57.32
2018-04-30T07:59:38.689Z,56.62
2018-04-30T08:00:38.967Z,56.91
2018-04-30T08:01:38.982Z,56.05
2018-04-30T08:02:39.007Z,55.12
2018-04-30T08:03:39.027Z,55.22
2018-04-30T08:04:39.056Z,54.1
2018-04-30T08:05:39.073Z,53.52
2018-04-30T08:06:39.149Z,52.87
2018-04-30T08:07:39.117Z,51.54
2018-04-30T08:08:38.886Z,50.79
2018-04-30T08:09:39.157Z,49.74
2018-04-30T08:10:39.183Z,49
2018-04-30T08:11:39.211Z,48.9
2018-04-30T08:12:39.232Z,47.66
2018-04-30T08:13:39.252Z,48.04
2018-04-30T08:14:39.278Z,48.04
2018-04-30T08:15:39.303Z,48.49
2018-04-30T08:16:39.069Z,49.05
2018-04-30T08:17:39.351Z,48.95
2018-04-30T08:18:39.116Z,48.57
2018-04-30T08:19:39.393Z,48.66
2018-04-30T08:20:39.429Z,48.75
2018-04-30T08:21:39.652Z,48.59
2018-04-30T08:22:39.464Z,48.57
2018-04-30T08:23:39.486Z,48.75
2018-04-30T08:24:39.254Z,48.75
2018-04-30T08:25:39.528Z,48.95
2018-04-30T08:26:39.550Z,49.62
2018-04-30T08:27:39.575Z,50.07
2018-04-30T08:28:39.601Z,49.98
2018-04-30T08:29:39.629Z,49.62
2018-04-30T08:30:39.646Z,50.1
2018-04-30T08:31:39.416Z,50.93
2018-04-30T08:32:39.698Z,50.17
2018-04-30T08:33:39.728Z,50
2018-04-30T08:34:39.736Z,50
2018-04-30T08:35:39.760Z,50.58
2018-04-30T08:36:40.026Z,51.32
2018-04-30T08:37:39.806Z,51.58
2018-04-30T08:38:39.842Z,51.87
2018-04-30T08:39:39.850Z,52.06
2018-04-30T08:40:39.877Z,51.51
2018-04-30T08:41:39.691Z,51.51
2018-04-30T08:42:39.916Z,51.42
2018-04-30T08:43:39.938Z,50.26
2018-04-30T08:44:39.709Z,51.03
2018-04-30T08:45:39.997Z,50.46
2018-04-30T08:46:40.018Z,50.56
2018-04-30T08:47:39.776Z,50.74
2018-04-30T08:48:39.798Z,49.43
2018-04-30T08:49:40.075Z,49.71
2018-04-30T08:50:40.102Z,49.14
2018-04-30T08:51:40.172Z,48.66
2018-04-30T08:52:39.889Z,47.53
2018-04-30T08:53:40.168Z,46.96
2018-04-30T08:54:40.187Z,47.82
2018-04-30T08:55:40.289Z,47.44
2018-04-30T08:56:40.236Z,47.27
2018-04-30T08:57:40.268Z,47.25
2018-04-30T08:58:40.287Z,46.5
2018-04-30T08:59:40.304Z,45.36
2018-04-30T09:00:40.147Z,45.54
2018-04-30T09:01:40.360Z,45.26
2018-04-30T09:02:40.376Z,45
2018-04-30T09:03:40.397Z,44.03
2018-04-30T09:04:40.165Z,43.65
2018-04-30T09:05:40.448Z,43.87
2018-04-30T09:06:40.265Z,43.87
2018-04-30T09:07:40.488Z,44.51
2018-04-30T09:08:40.513Z,45.67
2018-04-30T09:09:40.654Z,44.78
2018-04-30T09:10:40.612Z,44.49
2018-04-30T09:11:40.597Z,44.78
2018-04-30T09:12:40.605Z,44.68
2018-04-30T09:13:40.632Z,44.78
2018-04-30T09:14:40.655Z,44.49
2018-04-30T09:15:40.679Z,44.61
2018-04-30T09:16:40.802Z,45.37
2018-04-30T09:17:40.470Z,44.32
2018-04-30T09:18:40.747Z,43.74
2018-04-30T09:19:40.771Z,43.17
2018-04-30T09:20:40.793Z,42.98
2018-04-30T09:21:40.872Z,43.57
2018-04-30T09:22:40.842Z,45.37
2018-04-30T09:23:40.864Z,45.26
2018-04-30T09:24:40.885Z,45.45
2018-04-30T09:25:40.658Z,45.26
2018-04-30T09:26:40.939Z,43.94
2018-04-30T09:27:40.960Z,42.52
2018-04-30T09:28:40.988Z,41.46
2018-04-30T09:29:41.007Z,40.91
2018-04-30T09:30:41.029Z,40.16
2018-04-30T09:31:40.801Z,39.24
2018-04-30T09:32:41.082Z,37.91
2018-04-30T09:33:41.096Z,36.39
2018-04-30T09:34:40.871Z,35.06
2018-04-30T09:35:40.895Z,34.11
2018-04-30T09:36:41.224Z,33.53
2018-04-30T09:37:41.200Z,33.26
2018-04-30T09:38:41.226Z,33.55
2018-04-30T09:39:41.254Z,33.36
2018-04-30T09:40:41.273Z,32.87
2018-04-30T09:41:41.304Z,33.17
2018-04-30T09:42:41.323Z,34.69
2018-04-30T09:43:41.354Z,35.73
2018-04-30T09:44:41.377Z,38.1
2018-04-30T09:45:41.403Z,39.7
2018-04-30T09:46:41.434Z,40.06
2018-04-30T09:47:41.456Z,39.11
2018-04-30T09:48:41.480Z,37.87
2018-04-30T09:49:41.258Z,37.22
2018-04-30T09:50:41.542Z,36.27
2018-04-30T09:51:41.359Z,36.85
2018-04-30T09:52:41.340Z,36.27
2018-04-30T09:53:41.622Z,35.99
2018-04-30T09:54:41.401Z,35.52
2018-04-30T09:55:41.677Z,35.14
2018-04-30T09:56:41.710Z,34.01
2018-04-30T09:57:41.935Z,33.63
2018-04-30T09:58:41.759Z,34.5
2018-04-30T09:59:41.787Z,34.86
2018-04-30T10:00:41.819Z,34.77
2018-04-30T10:01:41.841Z,34
2018-04-30T10:02:41.864Z,33.53
2018-04-30T10:03:41.643Z,33.26
2018-04-30T10:04:41.923Z,32.2
2018-04-30T10:05:41.954Z,32.41
2018-04-30T10:06:42.028Z,32.03
2018-04-30T10:07:42.006Z,31.75
2018-04-30T10:08:42.035Z,31.83
2018-04-30T10:09:42.079Z,31.93
2018-04-30T10:10:42.090Z,31.73
2018-04-30T10:11:42.172Z,31.17
2018-04-30T10:12:41.894Z,30.51
2018-04-30T10:13:41.918Z,29.66
2018-04-30T10:14:42.214Z,28.33
2018-04-30T10:15:42.228Z,28.04
2018-04-30T10:16:42.261Z,27.47
2018-04-30T10:17:42.316Z,27.57
2018-04-30T10:18:42.318Z,26.72
2018-04-30T10:19:42.344Z,25.38
2018-04-30T10:20:42.123Z,24.54
2018-04-30T10:21:42.404Z,23.58
2018-04-30T10:22:42.183Z,23.31
2018-04-30T10:23:42.254Z,23.31
2018-04-30T10:24:42.497Z,24.45
2018-04-30T10:25:42.524Z,24.82
2018-04-30T10:26:42.610Z,26.16
2018-04-30T10:27:42.587Z,27.1
2018-04-30T10:28:42.744Z,26.72
2018-04-30T10:29:42.391Z,27
2018-04-30T10:30:42.681Z,27.1
2018-04-30T10:31:42.794Z,26.62
2018-04-30T10:32:42.733Z,25.95
2018-04-30T10:33:42.837Z,24.62
2018-04-30T10:34:42.542Z,24.43
2018-04-30T10:35:42.826Z,23.47
2018-04-30T10:36:42.961Z,23.08
2018-04-30T10:37:43.000Z,23.19
2018-04-30T10:38:42.662Z,22.99
2018-04-30T10:39:42.950Z,22.99
2018-04-30T10:40:42.976Z,23.47
2018-04-30T10:41:42.801Z,24.52
2018-04-30T10:42:43.037Z,24.71
2018-04-30T10:43:42.808Z,24.99
2018-04-30T10:44:43.103Z,25.67
2018-04-30T10:45:42.928Z,26.15
2018-04-30T10:46:43.205Z,26.81
2018-04-30T10:47:43.204Z,25.74
2018-04-30T10:48:43.210Z,24.71
2018-04-30T10:49:43.244Z,24.04
2018-04-30T10:50:43.271Z,22.99
2018-04-30T10:51:43.578Z,22.81
2018-04-30T10:52:43.078Z,21.66
2018-04-30T10:53:43.360Z,21.18
2018-04-30T10:54:43.390Z,21.01
2018-04-30T10:55:43.169Z,21.29
2018-04-30T10:56:43.459Z,21.96
2018-04-30T10:57:43.485Z,22.24
2018-04-30T10:58:43.262Z,23.2
2018-04-30T10:59:43.543Z,23.09
2018-04-30T11:00:43.327Z,24.82
2018-04-30T11:01:43.349Z,26.32
2018-04-30T11:02:43.829Z,26.79
2018-04-30T11:03:43.661Z,26.7
2018-04-30T11:04:43.438Z,27.66
2018-04-30T11:05:43.724Z,27.55
2018-04-30T11:06:43.799Z,26.88
2018-04-30T11:07:43.789Z,27.08
2018-04-30T11:08:43.809Z,26.79
2018-04-30T11:09:43.837Z,26.03
2018-04-30T11:10:43.866Z,25.84
2018-04-30T11:11:43.893Z,25.55
2018-04-30T11:12:43.664Z,25.55
2018-04-30T11:13:43.949Z,25.55
2018-04-30T11:14:43.979Z,24.87
2018-04-30T11:15:44.002Z,24.68
2018-04-30T11:16:43.778Z,24.69
2018-04-30T11:17:44.058Z,25.27
2018-04-30T11:18:44.090Z,25.46
2018-04-30T11:19:44.120Z,25.55
2018-04-30T11:20:44.143Z,25.65
2018-04-30T11:21:44.223Z,25.73
2018-04-30T11:22:44.357Z,25.55
2018-04-30T11:23:44.235Z,24.69
2018-04-30T11:24:44.009Z,24.4
2018-04-30T11:25:44.286Z,23.94
2018-04-30T11:26:44.318Z,22.4
2018-04-30T11:27:44.555Z,21.17
2018-04-30T11:28:44.371Z,19.73
2018-04-30T11:29:44.402Z,18.5
2018-04-30T11:30:44.177Z,18.31
2018-04-30T11:31:44.205Z,18.7
2018-04-30T11:32:44.496Z,18.79
2018-04-30T11:33:44.532Z,19.27
2018-04-30T11:34:44.293Z,19.56
2018-04-30T11:35:44.598Z,19.85
2018-04-30T11:36:44.681Z,19.55
2018-04-30T11:37:44.383Z,20.22
2018-04-30T11:38:44.684Z,19.93
2018-04-30T11:39:45.291Z,19.93
2018-04-30T11:40:44.471Z,20.03
2018-04-30T11:41:44.500Z,19.83
2018-04-30T11:42:44.790Z,19.35
2018-04-30T11:43:44.561Z,17.82
2018-04-30T11:44:44.589Z,17.44
2018-04-30T11:45:44.885Z,17.35
2018-04-30T11:46:44.914Z,17.35
2018-04-30T11:47:44.941Z,16.09
2018-04-30T11:48:45.401Z,16.41
2018-04-30T11:49:44.739Z,16.2
2018-04-30T11:50:45.034Z,15.53
2018-04-30T11:51:44.858Z,14.96
2018-04-30T11:52:45.095Z,13.89
2018-04-30T11:53:45.129Z,12.84
2018-04-30T11:54:44.902Z,13.13
2018-04-30T11:55:45.191Z,12.56
2018-04-30T11:56:45.233Z,11.98
2018-04-30T11:57:45.003Z,11.69
2018-04-30T11:58:45.422Z,11.3
2018-04-30T11:59:45.335Z,12.87
2018-04-30T12:00:45.103Z,13.51
2018-04-30T12:01:45.465Z,14.87
2018-04-30T12:02:45.444Z,14.56
2018-04-30T12:03:45.205Z,14.18
2018-04-30T12:04:45.503Z,14.29
2018-04-30T12:05:45.533Z,14.58
2018-04-30T12:06:45.357Z,14.67
2018-04-30T12:07:45.613Z,15.54
2018-04-30T12:08:45.371Z,16.2
2018-04-30T12:09:45.402Z,15.81
2018-04-30T12:10:45.697Z,15.72
2018-04-30T12:11:52.002Z,14.86
2018-04-30T12:12:45.501Z,14.19
2018-04-30T12:13:45.796Z,13.61
2018-04-30T12:14:45.850Z,13.32
2018-04-30T12:15:46.303Z,13.03
2018-04-30T12:16:45.908Z,13.42
2018-04-30T12:17:45.957Z,14
2018-04-30T12:18:45.698Z,14.48
2018-04-30T12:19:45.732Z,14.97
2018-04-30T12:20:46.025Z,15.26
2018-04-30T12:21:46.127Z,15.16
2018-04-30T12:22:46.093Z,15.44
2018-04-30T12:23:45.860Z,15.63
2018-04-30T12:24:46.332Z,16.1
2018-04-30T12:25:46.204Z,16.48
2018-04-30T12:26:46.054Z,17.44
2018-04-30T12:27:46.266Z,17.62
2018-04-30T12:28:46.019Z,17.91
2018-04-30T12:29:46.121Z,19.26
2018-04-30T12:30:46.343Z,20.01
2018-04-30T12:31:46.410Z,20.68
2018-04-30T12:32:46.142Z,21.34
2018-04-30T12:33:46.578Z,21.43
2018-04-30T12:34:46.201Z,21.72
2018-04-30T12:35:46.231Z,21.14
2018-04-30T12:36:46.595Z,20.08
2018-04-30T12:37:46.561Z,20
2018-04-30T12:38:46.586Z,18.27
2018-04-30T12:39:46.616Z,17.33
2018-04-30T12:40:46.653Z,15.99
2018-04-30T12:41:46.682Z,15.32
2018-04-30T12:42:46.710Z,14.56
2018-04-30T12:43:46.890Z,14.18
2018-04-30T12:44:46.785Z,13.79
2018-04-30T12:45:46.798Z,13.5
2018-04-30T12:46:46.833Z,12.54
2018-04-30T12:47:46.865Z,11.58
2018-04-30T12:48:46.898Z,12.07
2018-04-30T12:49:47.136Z,12.55
2018-04-30T12:50:47.137Z,11.86
2018-04-30T12:51:47.044Z,11.38
2018-04-30T12:52:47.655Z,11.29
2018-04-30T12:53:47.065Z,11.49
2018-04-30T12:54:47.096Z,11.09
2018-04-30T12:55:47.140Z,11
2018-04-30T12:56:47.168Z,10.52